createdAt,value
2018-12-02T00:00:02.981Z,9.3
2018-12-02T00:05:02.427Z,9.6
2018-12-02T00:10:02.929Z,9.8
2018-12-02T00:15:02.492Z,10.0
2018-12-02T00:20:03.017Z,10.0
2018-12-02T00:25:02.491Z,10.0
2018-12-02T00:30:02.990Z,10.0
2018-12-02T00:35:02.466Z,10.0
2018-12-02T00:40:02.986Z,10.0
2018-12-02T00:45:02.496Z,10.1
2018-12-02T00:50:02.938Z,10.0
2018-12-02T00:55:02.439Z,10.0
2018-12-02T01:00:03.053Z,10.0
2018-12-02T01:05:02.908Z,10.0
2018-12-02T01:10:02.461Z,10.0
2018-12-02T01:15:03.008Z,9.8
2018-12-02T01:20:02.656Z,9.8
2018-12-02T01:25:03.103Z,9.8
2018-12-02T01:30:02.676Z,9.6
2018-12-02T01:35:03.187Z,9.6
2018-12-02T01:40:02.915Z,9.5
2018-12-02T01:45:02.376Z,9.5
2018-12-02T01:50:02.821Z,9.5
2018-12-02T01:55:03.250Z,9.6
2018-12-02T02:00:02.753Z,9.6
2018-12-02T02:05:03.256Z,9.6
2018-12-02T02:10:02.802Z,9.6
2018-12-02T02:15:02.315Z,9.5
2018-12-02T02:20:02.904Z,9.5
2018-12-02T02:25:02.334Z,9.3
2018-12-02T02:30:02.839Z,9.3
2018-12-02T02:35:02.371Z,8.6
2018-12-02T02:40:02.925Z,8.5
2018-12-02T02:45:02.388Z,8.5
2018-12-02T02:50:02.904Z,8.6
2018-12-02T02:55:02.433Z,8.5
2018-12-02T03:00:02.981Z,8.5
2018-12-02T03:05:02.485Z,8.5
2018-12-02T03:10:03.061Z,8.5
2018-12-02T03:15:02.529Z,8.5
2018-12-02T03:20:03.046Z,8.5
2018-12-02T03:25:02.491Z,8.5
2018-12-02T03:30:02.945Z,8.5
2018-12-02T03:35:02.578Z,8.6
2018-12-02T03:40:03.152Z,8.6
2018-12-02T03:45:02.739Z,8.6
2018-12-02T03:50:02.297Z,8.6
2018-12-02T03:55:02.788Z,8.6
2018-12-02T04:00:02.307Z,8.6
2018-12-02T04:05:02.803Z,8.6
2018-12-02T04:10:02.328Z,8.6
2018-12-02T04:15:02.771Z,8.6
2018-12-02T04:20:03.185Z,8.6
2018-12-02T04:25:02.756Z,8.6
2018-12-02T04:30:03.232Z,8.6
2018-12-02T04:35:02.819Z,8.6
2018-12-02T04:40:02.432Z,8.6
2018-12-02T04:45:02.859Z,8.6
2018-12-02T04:50:02.452Z,8.6
2018-12-02T04:55:02.886Z,8.8
2018-12-02T05:00:02.293Z,8.6
2018-12-02T05:05:02.846Z,8.8
2018-12-02T05:10:02.383Z,8.8
2018-12-02T05:15:02.898Z,8.8
2018-12-02T05:20:02.433Z,9.0
2018-12-02T05:25:02.996Z,8.8
2018-12-02T05:30:02.505Z,8.8
2018-12-02T05:35:03.205Z,8.8
2018-12-02T05:40:02.949Z,8.8
2018-12-02T05:45:02.478Z,8.8
2018-12-02T05:50:02.491Z,8.8
2018-12-02T05:55:02.935Z,8.8
2018-12-02T06:00:02.346Z,8.8
2018-12-02T06:05:02.851Z,8.8
2018-12-02T06:10:02.328Z,8.8
2018-12-02T06:15:02.784Z,8.8
2018-12-02T06:20:04.776Z,8.8
2018-12-02T06:25:02.487Z,8.8
2018-12-02T06:30:03.062Z,8.8
2018-12-02T06:35:02.531Z,8.8
2018-12-02T06:40:03.179Z,8.8
2018-12-02T06:45:02.517Z,9.0
2018-12-02T06:50:03.048Z,8.8
2018-12-02T06:55:02.464Z,9.0
2018-12-02T07:00:03.029Z,9.0
2018-12-02T07:05:02.477Z,8.8
2018-12-02T07:10:03.037Z,9.0
2018-12-02T07:15:02.545Z,9.0
2018-12-02T07:20:03.101Z,9.0
2018-12-02T07:25:02.576Z,9.0
2018-12-02T07:30:03.073Z,9.0
2018-12-02T07:35:02.640Z,9.1
2018-12-02T07:40:03.136Z,9.1
2018-12-02T07:45:02.593Z,9.1
2018-12-02T07:50:03.126Z,9.3
2018-12-02T07:55:02.714Z,9.3
2018-12-02T08:00:03.579Z,9.5
2018-12-02T08:05:03.043Z,9.5
2018-12-02T08:10:02.538Z,9.5
2018-12-02T08:15:03.101Z,9.6
2018-12-02T08:20:02.594Z,9.6
2018-12-02T08:25:03.036Z,9.6
2018-12-02T08:30:02.484Z,10.0
2018-12-02T08:35:03.213Z,10.1
2018-12-02T08:40:02.708Z,10.1
2018-12-02T08:45:03.298Z,10.3
2018-12-02T08:50:02.955Z,10.3
2018-12-02T08:55:02.440Z,10.3
2018-12-02T09:00:02.972Z,10.5
2018-12-02T09:05:02.470Z,10.5
2018-12-02T09:10:03.123Z,10.5
2018-12-02T09:15:02.624Z,10.5
2018-12-02T09:20:03.162Z,10.6
2018-12-02T09:25:02.668Z,10.6
2018-12-02T09:30:03.485Z,10.8
2018-12-02T09:35:02.950Z,10.8
2018-12-02T09:40:02.674Z,10.8
2018-12-02T09:45:03.196Z,11.0
2018-12-02T09:50:02.672Z,11.1
2018-12-02T09:55:03.293Z,11.3
2018-12-02T10:00:02.904Z,11.3
2018-12-02T10:05:02.409Z,11.3
2018-12-02T10:10:03.032Z,11.6
2018-12-02T10:15:02.901Z,11.6
2018-12-02T10:20:02.361Z,11.6
2018-12-02T10:25:02.896Z,11.6
2018-12-02T10:30:02.424Z,11.6
2018-12-02T10:35:02.933Z,11.6
2018-12-02T10:40:02.457Z,11.6
2018-12-02T10:45:02.960Z,11.6
2018-12-02T10:50:02.437Z,11.6
2018-12-02T10:55:03.028Z,11.8
2018-12-02T11:00:02.752Z,11.6
2018-12-02T11:05:02.570Z,11.6
2018-12-02T11:10:03.358Z,11.8
2018-12-02T11:15:03.008Z,12.0
2018-12-02T11:20:02.575Z,12.0
2018-12-02T11:25:03.002Z,12.1
2018-12-02T11:30:02.548Z,12.1
2018-12-02T11:35:03.228Z,12.1
2018-12-02T11:40:02.763Z,12.1
2018-12-02T11:45:03.255Z,12.1
2018-12-02T11:50:02.727Z,12.3
2018-12-02T11:55:03.235Z,12.1
2018-12-02T12:00:02.734Z,12.3
2018-12-02T12:05:02.400Z,12.3
2018-12-02T12:10:02.984Z,12.5
2018-12-02T12:15:02.512Z,12.5
2018-12-02T12:20:03.095Z,12.5
2018-12-02T12:25:02.603Z,12.6
2018-12-02T12:30:03.121Z,12.6
2018-12-02T12:35:02.630Z,12.6
2018-12-02T12:40:03.121Z,12.6
2018-12-02T12:45:02.605Z,12.6
2018-12-02T12:50:03.252Z,12.5
2018-12-02T12:55:02.762Z,12.5
2018-12-02T13:00:03.233Z,12.5
2018-12-02T13:05:02.784Z,12.3
2018-12-02T13:10:02.281Z,12.3
2018-12-02T13:15:02.818Z,12.5
2018-12-02T13:20:02.325Z,12.3
2018-12-02T13:25:02.936Z,12.3
2018-12-02T13:30:02.442Z,12.3
2018-12-02T13:35:03.006Z,12.3
2018-12-02T13:40:02.724Z,12.5
2018-12-02T13:45:03.302Z,12.3
2018-12-02T13:50:02.921Z,12.3
2018-12-02T13:55:02.477Z,12.3
2018-12-02T14:00:03.098Z,12.3
2018-12-02T14:05:02.703Z,12.3
2018-12-02T14:10:02.745Z,12.1
2018-12-02T14:15:02.401Z,12.1
2018-12-02T14:20:02.473Z,12.1
2018-12-02T14:25:03.226Z,12.1
2018-12-02T14:30:02.902Z,12.1
2018-12-02T14:35:02.527Z,12.0
2018-12-02T14:40:03.302Z,12.1
2018-12-02T14:45:02.830Z,12.0
2018-12-02T14:50:02.392Z,12.0
2018-12-02T14:55:02.835Z,12.0
2018-12-02T15:00:02.308Z,12.0
2018-12-02T15:05:03.061Z,12.0
2018-12-02T15:10:02.711Z,12.1
2018-12-02T15:15:03.246Z,12.1
2018-12-02T15:20:02.746Z,12.0
2018-12-02T15:25:02.402Z,12.0
2018-12-02T15:30:03.094Z,12.0
2018-12-02T15:35:02.739Z,12.1
2018-12-02T15:40:02.411Z,12.0
2018-12-02T15:45:03.039Z,12.1
2018-12-02T15:50:02.689Z,12.0
2018-12-02T15:55:02.600Z,12.1
2018-12-02T16:00:03.139Z,12.0
2018-12-02T16:05:02.667Z,12.1
2018-12-02T16:10:02.382Z,12.1
2018-12-02T16:15:03.122Z,12.1
2018-12-02T16:20:02.682Z,12.1
2018-12-02T16:25:03.366Z,12.1
2018-12-02T16:30:02.935Z,12.1
2018-12-02T16:35:02.660Z,12.1
2018-12-02T16:40:02.380Z,12.1
2018-12-02T16:45:02.853Z,12.1
2018-12-02T16:50:02.419Z,12.1
2018-12-02T16:55:02.910Z,12.1
2018-12-02T17:00:03.718Z,12.0
2018-12-02T17:05:02.406Z,12.0
2018-12-02T17:10:03.356Z,12.0
2018-12-02T17:15:02.925Z,12.0
2018-12-02T17:20:02.772Z,11.8
2018-12-02T17:25:03.344Z,11.8
2018-12-02T17:30:03.355Z,11.8
2018-12-02T17:35:03.336Z,11.8
2018-12-02T17:40:03.061Z,11.8
2018-12-02T17:45:02.742Z,11.8
2018-12-02T17:50:02.536Z,11.8
2018-12-02T17:55:03.064Z,11.8
2018-12-02T18:00:02.461Z,11.8
2018-12-02T18:05:03.307Z,11.8
2018-12-02T18:10:02.912Z,11.8
2018-12-02T18:15:02.564Z,11.8
2018-12-02T18:20:03.146Z,11.8
2018-12-02T18:25:02.875Z,11.8
2018-12-02T18:30:02.609Z,11.8
2018-12-02T18:35:03.139Z,11.8
2018-12-02T18:40:02.641Z,11.8
2018-12-02T18:45:03.007Z,11.8
2018-12-02T18:50:02.765Z,12.0
2018-12-02T18:55:03.210Z,12.0
2018-12-02T19:00:02.653Z,12.0
2018-12-02T19:05:02.491Z,12.1
2018-12-02T19:10:03.166Z,12.0
2018-12-02T19:15:02.624Z,12.0
2018-12-02T19:20:03.100Z,12.0
2018-12-02T19:25:02.640Z,11.8
2018-12-02T19:30:03.104Z,12.0
2018-12-02T19:35:02.623Z,11.8
2018-12-02T19:40:03.339Z,11.8
2018-12-02T19:45:02.940Z,11.8
2018-12-02T19:50:02.560Z,11.8
2018-12-02T19:55:03.097Z,11.8
2018-12-02T20:00:02.654Z,11.8
2018-12-02T20:05:02.388Z,12.0
2018-12-02T20:10:03.150Z,12.1
2018-12-02T20:15:02.742Z,12.1
2018-12-02T20:20:02.600Z,12.5
2018-12-02T20:25:02.392Z,12.6
2018-12-02T20:30:02.922Z,12.6
2018-12-02T20:35:02.424Z,12.6
2018-12-02T20:40:03.106Z,12.3
2018-12-02T20:45:02.570Z,12.3
2018-12-02T20:50:03.109Z,12.3
2018-12-02T20:55:02.493Z,12.5
2018-12-02T21:00:03.173Z,12.8
2018-12-02T21:05:02.712Z,12.8
2018-12-02T21:10:02.283Z,12.5
2018-12-02T21:15:02.990Z,12.5
2018-12-02T21:20:02.530Z,12.5
2018-12-02T21:25:03.073Z,12.5
2018-12-02T21:30:02.578Z,12.6
2018-12-02T21:35:03.139Z,12.6
2018-12-02T21:40:02.772Z,12.6
2018-12-02T21:45:02.361Z,12.6
2018-12-02T21:50:02.825Z,12.6
2018-12-02T21:55:02.321Z,12.6
2018-12-02T22:00:02.821Z,12.5
2018-12-02T22:05:02.386Z,12.5
2018-12-02T22:10:03.010Z,12.1
2018-12-02T22:15:02.526Z,12.0
2018-12-02T22:20:03.118Z,12.0
2018-12-02T22:25:02.599Z,11.8
2018-12-02T22:30:03.300Z,11.8
2018-12-02T22:35:02.764Z,12.0
2018-12-02T22:40:02.337Z,12.0
2018-12-02T22:45:02.774Z,11.8
2018-12-02T22:50:02.425Z,12.0
2018-12-02T22:55:03.034Z,12.0
2018-12-02T23:00:02.492Z,12.0
2018-12-02T23:05:03.207Z,12.0
2018-12-02T23:10:02.571Z,12.0
2018-12-02T23:15:02.963Z,12.0
2018-12-02T23:20:02.385Z,12.0
2018-12-02T23:25:03.033Z,12.1
2018-12-02T23:30:02.447Z,12.1
2018-12-02T23:35:02.924Z,12.1
2018-12-02T23:40:02.312Z,12.1
2018-12-02T23:45:02.675Z,12.1
2018-12-02T23:50:03.111Z,12.1
2018-12-02T23:55:02.506Z,12.1
